Airfield :
LOGIN :

Register | Disclaimer

   EN    FR    IT 

 










Legend :    VFR   Marginal VFR   IFR   Intensive IFR   Very Intensive IFR
Visi :
Ceiling :
>= 8 km
>= 3000ft
5 to 8 km
1000 to 3000 ft
1500m to 5 km
500 to 1000 ft
800 to 1500m
200 to 500 ft
< 800m
< 200 ft
Symbols :   Thunderstorms  Fog  Heavy snow  Heavy precipitations  Wind > 20 kt
SIGMETs :     Misc.  Thunderstorms  Icing  Turbulence  Mountain Waves  Volcanic Ashes






- Airport Elevation : 1273 ft
- IATA code : LJU


LJLJ - Ljubljana

CURRENT METAR :
  • 011100Z VRB01KT 9999 OVC027 M01/M01 Q1019 NOSIG

EXPIRED METARs :
  • 011030Z 00000KT 9999 OVC024 M01/M02 Q1019 NOSIG
  • 011000Z 26003KT 220V290 9999 OVC024 M02/M02 Q1019 NOSIG
  • 010930Z VRB01KT 9999 BKN023 M02/M03 Q1020 NOSIG
  • 010900Z 00000KT 9999 BKN023 M03/M04 Q1020 NOSIG
  • 010830Z VRB01KT 9999 BKN023 M04/M04 Q1020 NOSIG

TAF TAF LJLJ
Valid from the 01 at 06:00 until the 02 at 06:00 UTC


010500Z 0106/0206 VRB01KT 9999 FEW035
PROB40
TEMPO 0106/0109 0300 FZFG VV001



MET'MAP, your aeronautical weather chart ! - Copyright ORBIFLY December 2007 - Disclaimer

ORBIFLY MET'MAP TEAM :

Programming & Development : Alexandra Zaïnal
Concept & original design : Baudouin d'Aumeries
Assistance for programming : Marc-Olivier Méhu
Technical & hardware support : Manuel Goepfert

Contact : metmap@orbifly.com




SOURCES & CREDITS :

   NOAA